sensor_id;sensor_type;location;lat;lon;timestamp;temperature;humidity
21646;DHT22;10984;45.712;4.800;2023-06-14T00:01:53;19.90;99.90
21646;DHT22;10984;45.712;4.800;2023-06-14T00:04:19;19.90;99.90
21646;DHT22;10984;45.712;4.800;2023-06-14T00:06:46;20.00;99.90
21646;DHT22;10984;45.712;4.800;2023-06-14T00:09:12;20.00;99.90
21646;DHT22;10984;45.712;4.800;2023-06-14T00:11:39;19.90;99.90
21646;DHT22;10984;45.712;4.800;2023-06-14T00:14:05;19.90;99.90
21646;DHT22;10984;45.712;4.800;2023-06-14T00:16:31;19.90;99.90
21646;DHT22;10984;45.712;4.800;2023-06-14T00:18:59;19.90;99.90
21646;DHT22;10984;45.712;4.800;2023-06-14T00:21:24;19.90;99.90
21646;DHT22;10984;45.712;4.800;2023-06-14T00:23:50;19.90;99.90
21646;DHT22;10984;45.712;4.800;2023-06-14T00:26:16;19.80;99.90
21646;DHT22;10984;45.712;4.800;2023-06-14T00:28:41;19.80;99.90
21646;DHT22;10984;45.712;4.800;2023-06-14T00:31:07;19.80;99.90
21646;DHT22;10984;45.712;4.800;2023-06-14T00:33:33;19.80;99.90
21646;DHT22;10984;45.712;4.800;2023-06-14T00:35:58;19.80;99.90
21646;DHT22;10984;45.712;4.800;2023-06-14T00:38:24;19.80;99.90
21646;DHT22;10984;45.712;4.800;2023-06-14T00:40:49;19.80;99.90
21646;DHT22;10984;45.712;4.800;2023-06-14T00:43:15;19.80;99.90
21646;DHT22;10984;45.712;4.800;2023-06-14T00:45:41;19.70;99.90
21646;DHT22;10984;45.712;4.800;2023-06-14T00:48:07;19.70;99.90
21646;DHT22;10984;45.712;4.800;2023-06-14T00:50:35;19.70;99.90
21646;DHT22;10984;45.712;4.800;2023-06-14T00:53:01;19.70;99.90
21646;DHT22;10984;45.712;4.800;2023-06-14T00:55:27;19.70;99.90
21646;DHT22;10984;45.712;4.800;2023-06-14T00:57:55;19.60;99.90
21646;DHT22;10984;45.712;4.800;2023-06-14T01:00:21;19.60;99.90
21646;DHT22;10984;45.712;4.800;2023-06-14T01:02:47;19.60;99.90
21646;DHT22;10984;45.712;4.800;2023-06-14T01:05:14;19.60;99.90
21646;DHT22;10984;45.712;4.800;2023-06-14T01:13:46;19.50;99.90
21646;DHT22;10984;45.712;4.800;2023-06-14T01:16:12;19.40;99.90
21646;DHT22;10984;45.712;4.800;2023-06-14T01:18:39;19.40;99.90
21646;DHT22;10984;45.712;4.800;2023-06-14T01:24:08;19.30;99.90
21646;DHT22;10984;45.712;4.800;2023-06-14T01:26:35;19.30;99.90
21646;DHT22;10984;45.712;4.800;2023-06-14T01:29:03;19.30;99.90
21646;DHT22;10984;45.712;4.800;2023-06-14T01:31:29;19.30;99.90
21646;DHT22;10984;45.712;4.800;2023-06-14T01:33:55;19.20;99.90
21646;DHT22;10984;45.712;4.800;2023-06-14T01:36:22;19.30;99.90
21646;DHT22;10984;45.712;4.800;2023-06-14T01:38:52;19.20;99.90
21646;DHT22;10984;45.712;4.800;2023-06-14T01:41:19;19.20;99.90
21646;DHT22;10984;45.712;4.800;2023-06-14T01:43:47;19.20;99.90
21646;DHT22;10984;45.712;4.800;2023-06-14T01:46:14;19.20;99.90
21646;DHT22;10984;45.712;4.800;2023-06-14T01:48:41;19.20;99.90
21646;DHT22;10984;45.712;4.800;2023-06-14T01:51:06;19.20;99.90
21646;DHT22;10984;45.712;4.800;2023-06-14T01:53:32;19.20;99.90
21646;DHT22;10984;45.712;4.800;2023-06-14T01:55:58;19.30;99.90
21646;DHT22;10984;45.712;4.800;2023-06-14T01:58:24;19.30;99.90
21646;DHT22;10984;45.712;4.800;2023-06-14T02:00:50;19.30;99.90
21646;DHT22;10984;45.712;4.800;2023-06-14T02:03:16;19.30;99.90
21646;DHT22;10984;45.712;4.800;2023-06-14T02:05:42;19.30;99.90
21646;DHT22;10984;45.712;4.800;2023-06-14T02:08:08;19.30;99.90
21646;DHT22;10984;45.712;4.800;2023-06-14T02:10:34;19.30;99.90
21646;DHT22;10984;45.712;4.800;2023-06-14T02:13:00;19.30;99.90
21646;DHT22;10984;45.712;4.800;2023-06-14T02:15:26;19.30;99.90
21646;DHT22;10984;45.712;4.800;2023-06-14T02:17:59;19.30;99.90
21646;DHT22;10984;45.712;4.800;2023-06-14T02:20:25;19.30;99.90
21646;DHT22;10984;45.712;4.800;2023-06-14T02:22:51;19.30;99.90
21646;DHT22;10984;45.712;4.800;2023-06-14T02:25:16;19.30;99.90
21646;DHT22;10984;45.712;4.800;2023-06-14T02:27:42;19.30;99.90
21646;DHT22;10984;45.712;4.800;2023-06-14T02:30:08;19.30;99.90
21646;DHT22;10984;45.712;4.800;2023-06-14T02:32:34;19.30;99.90
21646;DHT22;10984;45.712;4.800;2023-06-14T02:35:01;19.30;99.90
21646;DHT22;10984;45.712;4.800;2023-06-14T02:37:27;19.30;99.90
21646;DHT22;10984;45.712;4.800;2023-06-14T02:39:52;19.30;99.90
21646;DHT22;10984;45.712;4.800;2023-06-14T02:42:18;19.30;99.90
21646;DHT22;10984;45.712;4.800;2023-06-14T02:44:43;19.20;99.90
21646;DHT22;10984;45.712;4.800;2023-06-14T02:47:10;19.20;99.90
21646;DHT22;10984;45.712;4.800;2023-06-14T02:49:36;19.20;99.90
21646;DHT22;10984;45.712;4.800;2023-06-14T02:52:01;19.20;99.90
21646;DHT22;10984;45.712;4.800;2023-06-14T02:54:28;19.30;99.90
21646;DHT22;10984;45.712;4.800;2023-06-14T02:56:53;19.30;99.90
21646;DHT22;10984;45.712;4.800;2023-06-14T02:59:19;19.20;99.90
21646;DHT22;10984;45.712;4.800;2023-06-14T03:01:46;19.20;99.90
21646;DHT22;10984;45.712;4.800;2023-06-14T03:04:12;19.20;99.90
21646;DHT22;10984;45.712;4.800;2023-06-14T03:06:38;19.20;99.90
21646;DHT22;10984;45.712;4.800;2023-06-14T03:09:05;19.20;99.90
21646;DHT22;10984;45.712;4.800;2023-06-14T03:11:31;19.10;99.90
21646;DHT22;10984;45.712;4.800;2023-06-14T03:13:57;19.10;99.90
21646;DHT22;10984;45.712;4.800;2023-06-14T03:16:23;19.10;99.90
21646;DHT22;10984;45.712;4.800;2023-06-14T03:19:08;19.10;99.90
21646;DHT22;10984;45.712;4.800;2023-06-14T03:21:33;19.10;99.90
21646;DHT22;10984;45.712;4.800;2023-06-14T03:24:00;19.10;99.90
21646;DHT22;10984;45.712;4.800;2023-06-14T03:26:25;19.20;99.90
21646;DHT22;10984;45.712;4.800;2023-06-14T03:28:51;19.20;99.90
21646;DHT22;10984;45.712;4.800;2023-06-14T03:31:17;19.10;99.90
21646;DHT22;10984;45.712;4.800;2023-06-14T03:33:44;19.10;99.90
21646;DHT22;10984;45.712;4.800;2023-06-14T03:36:10;19.10;99.90
21646;DHT22;10984;45.712;4.800;2023-06-14T03:38:36;19.10;99.90
21646;DHT22;10984;45.712;4.800;2023-06-14T03:41:01;19.00;99.90
21646;DHT22;10984;45.712;4.800;2023-06-14T03:43:27;19.00;99.90
21646;DHT22;10984;45.712;4.800;2023-06-14T03:45:53;19.00;99.90
21646;DHT22;10984;45.712;4.800;2023-06-14T03:48:18;19.00;99.90
21646;DHT22;10984;45.712;4.800;2023-06-14T03:50:44;19.00;99.90
21646;DHT22;10984;45.712;4.800;2023-06-14T03:53:10;19.00;99.90
21646;DHT22;10984;45.712;4.800;2023-06-14T03:55:36;18.90;99.90
21646;DHT22;10984;45.712;4.800;2023-06-14T03:58:03;18.90;99.90
21646;DHT22;10984;45.712;4.800;2023-06-14T04:00:29;18.90;99.90
21646;DHT22;10984;45.712;4.800;2023-06-14T04:02:54;18.90;99.90
21646;DHT22;10984;45.712;4.800;2023-06-14T04:05:20;18.90;99.90
21646;DHT22;10984;45.712;4.800;2023-06-14T04:07:46;18.90;99.90
21646;DHT22;10984;45.712;4.800;2023-06-14T04:10:15;18.90;99.90
21646;DHT22;10984;45.712;4.800;2023-06-14T04:12:41;18.90;99.90
21646;DHT22;10984;45.712;4.800;2023-06-14T04:15:08;19.00;99.90
21646;DHT22;10984;45.712;4.800;2023-06-14T04:17:34;19.00;99.90
21646;DHT22;10984;45.712;4.800;2023-06-14T04:20:01;19.00;99.90
21646;DHT22;10984;45.712;4.800;2023-06-14T04:22:27;18.90;99.90
21646;DHT22;10984;45.712;4.800;2023-06-14T04:25:10;18.90;99.90
21646;DHT22;10984;45.712;4.800;2023-06-14T04:27:37;18.90;99.90
21646;DHT22;10984;45.712;4.800;2023-06-14T04:30:03;18.90;99.90
21646;DHT22;10984;45.712;4.800;2023-06-14T04:32:29;19.00;99.90
21646;DHT22;10984;45.712;4.800;2023-06-14T04:34:59;19.00;99.90
21646;DHT22;10984;45.712;4.800;2023-06-14T04:37:25;19.00;99.90
21646;DHT22;10984;45.712;4.800;2023-06-14T04:40:10;19.10;99.90
21646;DHT22;10984;45.712;4.800;2023-06-14T04:42:35;19.10;99.90
21646;DHT22;10984;45.712;4.800;2023-06-14T04:45:02;19.20;99.90
21646;DHT22;10984;45.712;4.800;2023-06-14T04:47:27;19.20;99.90
21646;DHT22;10984;45.712;4.800;2023-06-14T04:49:56;19.20;99.90
21646;DHT22;10984;45.712;4.800;2023-06-14T04:52:22;19.20;99.90
21646;DHT22;10984;45.712;4.800;2023-06-14T04:54:48;19.30;99.90
21646;DHT22;10984;45.712;4.800;2023-06-14T04:57:14;19.30;99.90
21646;DHT22;10984;45.712;4.800;2023-06-14T04:59:42;19.40;99.90
21646;DHT22;10984;45.712;4.800;2023-06-14T05:02:10;19.40;99.90
21646;DHT22;10984;45.712;4.800;2023-06-14T05:04:35;19.50;99.90
21646;DHT22;10984;45.712;4.800;2023-06-14T05:07:08;19.50;99.90
21646;DHT22;10984;45.712;4.800;2023-06-14T05:09:52;19.50;99.90
21646;DHT22;10984;45.712;4.800;2023-06-14T05:12:18;19.50;99.90
21646;DHT22;10984;45.712;4.800;2023-06-14T05:14:45;19.60;99.90
21646;DHT22;10984;45.712;4.800;2023-06-14T05:17:11;19.60;99.90
21646;DHT22;10984;45.712;4.800;2023-06-14T05:19:36;19.70;99.90
21646;DHT22;10984;45.712;4.800;2023-06-14T05:22:02;19.70;99.90
21646;DHT22;10984;45.712;4.800;2023-06-14T05:24:28;19.70;99.90
21646;DHT22;10984;45.712;4.800;2023-06-14T05:26:56;19.70;99.90
21646;DHT22;10984;45.712;4.800;2023-06-14T05:29:22;19.80;99.90
21646;DHT22;10984;45.712;4.800;2023-06-14T05:31:47;19.80;99.90
21646;DHT22;10984;45.712;4.800;2023-06-14T05:34:13;19.90;99.90
21646;DHT22;10984;45.712;4.800;2023-06-14T05:36:39;19.90;99.90
21646;DHT22;10984;45.712;4.800;2023-06-14T05:39:04;19.90;99.90
21646;DHT22;10984;45.712;4.800;2023-06-14T05:41:31;19.90;99.90
21646;DHT22;10984;45.712;4.800;2023-06-14T05:43:57;20.00;99.90
21646;DHT22;10984;45.712;4.800;2023-06-14T05:46:23;20.10;99.90
21646;DHT22;10984;45.712;4.800;2023-06-14T05:49:09;20.10;99.90
21646;DHT22;10984;45.712;4.800;2023-06-14T05:51:35;20.20;99.90
21646;DHT22;10984;45.712;4.800;2023-06-14T05:54:00;20.20;99.90
21646;DHT22;10984;45.712;4.800;2023-06-14T05:56:26;20.20;99.90
21646;DHT22;10984;45.712;4.800;2023-06-14T05:58:52;20.30;99.90
21646;DHT22;10984;45.712;4.800;2023-06-14T06:01:17;20.30;99.90
21646;DHT22;10984;45.712;4.800;2023-06-14T06:03:43;20.40;99.90
21646;DHT22;10984;45.712;4.800;2023-06-14T06:06:27;20.40;99.90
21646;DHT22;10984;45.712;4.800;2023-06-14T06:08:53;20.50;99.90
21646;DHT22;10984;45.712;4.800;2023-06-14T06:11:19;20.50;99.90
21646;DHT22;10984;45.712;4.800;2023-06-14T06:13:45;20.60;99.90
21646;DHT22;10984;45.712;4.800;2023-06-14T06:16:11;20.60;99.90
21646;DHT22;10984;45.712;4.800;2023-06-14T06:18:37;20.60;99.90
21646;DHT22;10984;45.712;4.800;2023-06-14T06:21:04;20.60;99.90
21646;DHT22;10984;45.712;4.800;2023-06-14T06:23:29;20.70;99.90
21646;DHT22;10984;45.712;4.800;2023-06-14T06:25:55;20.70;99.90
21646;DHT22;10984;45.712;4.800;2023-06-14T06:28:21;20.80;96.40
21646;DHT22;10984;45.712;4.800;2023-06-14T06:30:46;20.90;94.20
21646;DHT22;10984;45.712;4.800;2023-06-14T06:33:12;20.90;33.10
21646;DHT22;10984;45.712;4.800;2023-06-14T06:35:39;21.00;33.30
21646;DHT22;10984;45.712;4.800;2023-06-14T06:38:05;21.10;31.90
21646;DHT22;10984;45.712;4.800;2023-06-14T06:40:30;21.20;43.20
21646;DHT22;10984;45.712;4.800;2023-06-14T06:42:56;21.30;1.00
21646;DHT22;10984;45.712;4.800;2023-06-14T06:45:22;21.40;1.00
21646;DHT22;10984;45.712;4.800;2023-06-14T06:47:49;21.50;2.10
21646;DHT22;10984;45.712;4.800;2023-06-14T06:50:15;21.70;1.00
21646;DHT22;10984;45.712;4.800;2023-06-14T06:52:41;21.60;99.90
21646;DHT22;10984;45.712;4.800;2023-06-14T06:55:07;21.60;99.90
21646;DHT22;10984;45.712;4.800;2023-06-14T06:57:34;21.50;99.90
21646;DHT22;10984;45.712;4.800;2023-06-14T06:59:59;21.50;50.50
21646;DHT22;10984;45.712;4.800;2023-06-14T07:02:26;21.50;73.70
21646;DHT22;10984;45.712;4.800;2023-06-14T07:04:51;21.70;96.50
21646;DHT22;10984;45.712;4.800;2023-06-14T07:07:17;21.80;1.00
21646;DHT22;10984;45.712;4.800;2023-06-14T07:09:43;21.90;1.00
21646;DHT22;10984;45.712;4.800;2023-06-14T07:12:09;21.90;1.00
21646;DHT22;10984;45.712;4.800;2023-06-14T07:14:37;22.00;1.00
21646;DHT22;10984;45.712;4.800;2023-06-14T07:17:02;22.10;1.00
21646;DHT22;10984;45.712;4.800;2023-06-14T07:19:28;22.30;1.00
21646;DHT22;10984;45.712;4.800;2023-06-14T07:21:54;22.30;1.00
21646;DHT22;10984;45.712;4.800;2023-06-14T07:24:19;22.30;1.00
21646;DHT22;10984;45.712;4.800;2023-06-14T07:26:46;22.40;1.00
21646;DHT22;10984;45.712;4.800;2023-06-14T07:29:14;22.50;1.00
21646;DHT22;10984;45.712;4.800;2023-06-14T07:31:39;22.60;1.00
21646;DHT22;10984;45.712;4.800;2023-06-14T07:34:05;22.70;1.00
21646;DHT22;10984;45.712;4.800;2023-06-14T07:36:31;23.00;1.00
21646;DHT22;10984;45.712;4.800;2023-06-14T07:38:56;23.50;1.00
21646;DHT22;10984;45.712;4.800;2023-06-14T07:41:22;24.20;1.00
21646;DHT22;10984;45.712;4.800;2023-06-14T07:43:48;25.10;1.00
21646;DHT22;10984;45.712;4.800;2023-06-14T07:46:14;25.40;1.00
21646;DHT22;10984;45.712;4.800;2023-06-14T07:48:40;25.40;1.00
21646;DHT22;10984;45.712;4.800;2023-06-14T07:51:06;25.20;1.00
21646;DHT22;10984;45.712;4.800;2023-06-14T07:53:32;25.30;1.00
21646;DHT22;10984;45.712;4.800;2023-06-14T07:55:57;25.00;1.00
21646;DHT22;10984;45.712;4.800;2023-06-14T07:58:23;24.90;1.00
21646;DHT22;10984;45.712;4.800;2023-06-14T08:00:49;24.60;1.00
21646;DHT22;10984;45.712;4.800;2023-06-14T08:03:15;24.50;1.00
21646;DHT22;10984;45.712;4.800;2023-06-14T08:05:41;24.70;1.00
21646;DHT22;10984;45.712;4.800;2023-06-14T08:08:06;24.80;1.00
21646;DHT22;10984;45.712;4.800;2023-06-14T08:10:32;24.80;1.00
21646;DHT22;10984;45.712;4.800;2023-06-14T08:12:58;24.70;1.00
21646;DHT22;10984;45.712;4.800;2023-06-14T08:15:23;24.40;1.00
21646;DHT22;10984;45.712;4.800;2023-06-14T08:17:49;24.20;1.00
21646;DHT22;10984;45.712;4.800;2023-06-14T08:20:15;24.30;1.00
21646;DHT22;10984;45.712;4.800;2023-06-14T08:22:42;24.60;1.00
21646;DHT22;10984;45.712;4.800;2023-06-14T08:25:08;24.70;1.00
21646;DHT22;10984;45.712;4.800;2023-06-14T08:27:34;24.70;1.00
21646;DHT22;10984;45.712;4.800;2023-06-14T08:30:00;24.80;1.00
21646;DHT22;10984;45.712;4.800;2023-06-14T08:32:25;25.00;1.00
21646;DHT22;10984;45.712;4.800;2023-06-14T08:34:51;24.90;1.00
21646;DHT22;10984;45.712;4.800;2023-06-14T08:37:16;25.00;1.00
21646;DHT22;10984;45.712;4.800;2023-06-14T08:39:42;25.00;1.00
21646;DHT22;10984;45.712;4.800;2023-06-14T08:42:09;24.90;1.00
21646;DHT22;10984;45.712;4.800;2023-06-14T08:44:35;25.00;1.00
21646;DHT22;10984;45.712;4.800;2023-06-14T08:47:02;25.00;1.00
21646;DHT22;10984;45.712;4.800;2023-06-14T08:49:29;25.10;1.00
21646;DHT22;10984;45.712;4.800;2023-06-14T08:52:00;25.20;1.00
21646;DHT22;10984;45.712;4.800;2023-06-14T08:54:27;25.20;1.00
21646;DHT22;10984;45.712;4.800;2023-06-14T08:56:56;25.20;1.00
21646;DHT22;10984;45.712;4.800;2023-06-14T08:59:46;25.20;1.00
21646;DHT22;10984;45.712;4.800;2023-06-14T09:02:15;25.00;1.00
21646;DHT22;10984;45.712;4.800;2023-06-14T09:04:45;25.00;1.00
21646;DHT22;10984;45.712;4.800;2023-06-14T09:07:12;24.90;1.00
21646;DHT22;10984;45.712;4.800;2023-06-14T09:12:41;24.60;1.00
21646;DHT22;10984;45.712;4.800;2023-06-14T09:15:07;24.60;1.00
21646;DHT22;10984;45.712;4.800;2023-06-14T09:17:53;24.60;1.00
21646;DHT22;10984;45.712;4.800;2023-06-14T09:20:18;24.80;1.00
21646;DHT22;10984;45.712;4.800;2023-06-14T09:22:44;24.90;1.00
21646;DHT22;10984;45.712;4.800;2023-06-14T09:25:10;25.00;1.00
21646;DHT22;10984;45.712;4.800;2023-06-14T09:27:38;25.00;1.00
21646;DHT22;10984;45.712;4.800;2023-06-14T09:30:06;25.00;1.00
21646;DHT22;10984;45.712;4.800;2023-06-14T09:32:38;25.00;1.00
21646;DHT22;10984;45.712;4.800;2023-06-14T09:35:22;25.00;1.00
21646;DHT22;10984;45.712;4.800;2023-06-14T09:37:48;25.00;1.00
21646;DHT22;10984;45.712;4.800;2023-06-14T09:40:20;25.10;1.00
21646;DHT22;10984;45.712;4.800;2023-06-14T09:42:46;25.20;1.00
21646;DHT22;10984;45.712;4.800;2023-06-14T09:45:12;25.20;1.00
21646;DHT22;10984;45.712;4.800;2023-06-14T09:47:39;25.10;1.00
21646;DHT22;10984;45.712;4.800;2023-06-14T09:50:06;25.10;1.00
21646;DHT22;10984;45.712;4.800;2023-06-14T09:52:31;25.00;1.00
21646;DHT22;10984;45.712;4.800;2023-06-14T09:54:59;25.00;1.00
21646;DHT22;10984;45.712;4.800;2023-06-14T09:57:25;25.10;1.00
21646;DHT22;10984;45.712;4.800;2023-06-14T09:59:57;25.20;1.00
21646;DHT22;10984;45.712;4.800;2023-06-14T10:02:27;25.30;1.00
21646;DHT22;10984;45.712;4.800;2023-06-14T10:05:12;25.30;1.00
21646;DHT22;10984;45.712;4.800;2023-06-14T10:07:48;25.20;1.00
21646;DHT22;10984;45.712;4.800;2023-06-14T10:10:17;25.30;1.00
21646;DHT22;10984;45.712;4.800;2023-06-14T10:12:44;25.20;1.00
21646;DHT22;10984;45.712;4.800;2023-06-14T10:18:03;25.10;1.00
21646;DHT22;10984;45.712;4.800;2023-06-14T10:20:55;25.10;1.00
21646;DHT22;10984;45.712;4.800;2023-06-14T10:23:23;25.10;1.00
21646;DHT22;10984;45.712;4.800;2023-06-14T10:26:08;25.10;1.00
21646;DHT22;10984;45.712;4.800;2023-06-14T10:28:37;25.20;1.00
21646;DHT22;10984;45.712;4.800;2023-06-14T10:31:21;25.30;1.00
21646;DHT22;10984;45.712;4.800;2023-06-14T10:34:05;25.30;1.00
21646;DHT22;10984;45.712;4.800;2023-06-14T10:36:31;25.40;1.00
21646;DHT22;10984;45.712;4.800;2023-06-14T10:42:04;25.50;1.00
21646;DHT22;10984;45.712;4.800;2023-06-14T10:44:50;25.60;1.00
21646;DHT22;10984;45.712;4.800;2023-06-14T10:47:36;25.70;1.00
21646;DHT22;10984;45.712;4.800;2023-06-14T10:50:27;25.60;1.00
21646;DHT22;10984;45.712;4.800;2023-06-14T10:52:53;25.60;1.00
21646;DHT22;10984;45.712;4.800;2023-06-14T10:55:18;25.60;1.00
21646;DHT22;10984;45.712;4.800;2023-06-14T10:58:05;25.60;1.00
21646;DHT22;10984;45.712;4.800;2023-06-14T11:00:33;25.70;1.00
21646;DHT22;10984;45.712;4.800;2023-06-14T11:06:17;25.90;99.90
21646;DHT22;10984;45.712;4.800;2023-06-14T11:11:53;25.80;99.90
21646;DHT22;10984;45.712;4.800;2023-06-14T11:14:19;25.80;99.90
21646;DHT22;10984;45.712;4.800;2023-06-14T11:17:04;25.90;99.90
21646;DHT22;10984;45.712;4.800;2023-06-14T11:19:29;25.90;91.10
21646;DHT22;10984;45.712;4.800;2023-06-14T11:21:55;25.80;57.60
21646;DHT22;10984;45.712;4.800;2023-06-14T11:24:21;25.70;13.30
21646;DHT22;10984;45.712;4.800;2023-06-14T11:26:47;25.70;99.90
21646;DHT22;10984;45.712;4.800;2023-06-14T11:29:15;25.70;79.00
21646;DHT22;10984;45.712;4.800;2023-06-14T11:31:59;25.70;99.90
21646;DHT22;10984;45.712;4.800;2023-06-14T11:34:25;25.80;99.90
21646;DHT22;10984;45.712;4.800;2023-06-14T11:36:51;25.90;99.90
21646;DHT22;10984;45.712;4.800;2023-06-14T11:39:17;25.90;99.90
21646;DHT22;10984;45.712;4.800;2023-06-14T11:41:44;26.10;16.60
21646;DHT22;10984;45.712;4.800;2023-06-14T11:44:10;26.00;1.00
21646;DHT22;10984;45.712;4.800;2023-06-14T11:46:36;26.00;38.30
21646;DHT22;10984;45.712;4.800;2023-06-14T11:49:20;26.00;91.00
21646;DHT22;10984;45.712;4.800;2023-06-14T11:51:46;26.00;99.90
21646;DHT22;10984;45.712;4.800;2023-06-14T11:54:12;26.10;93.90
21646;DHT22;10984;45.712;4.800;2023-06-14T11:56:37;26.30;1.00
21646;DHT22;10984;45.712;4.800;2023-06-14T11:59:03;26.30;1.00
21646;DHT22;10984;45.712;4.800;2023-06-14T12:01:31;26.30;1.00
21646;DHT22;10984;45.712;4.800;2023-06-14T12:03:57;26.30;1.00
21646;DHT22;10984;45.712;4.800;2023-06-14T12:06:43;26.30;1.00
21646;DHT22;10984;45.712;4.800;2023-06-14T12:09:08;26.30;1.00
21646;DHT22;10984;45.712;4.800;2023-06-14T12:12:00;26.20;1.00
21646;DHT22;10984;45.712;4.800;2023-06-14T12:14:45;26.30;1.00
21646;DHT22;10984;45.712;4.800;2023-06-14T12:17:12;26.40;1.00
21646;DHT22;10984;45.712;4.800;2023-06-14T12:19:56;26.50;1.00
21646;DHT22;10984;45.712;4.800;2023-06-14T12:22:22;26.40;1.00
21646;DHT22;10984;45.712;4.800;2023-06-14T12:24:48;26.40;1.00
21646;DHT22;10984;45.712;4.800;2023-06-14T12:27:14;26.50;1.00
21646;DHT22;10984;45.712;4.800;2023-06-14T12:29:44;26.60;1.00
21646;DHT22;10984;45.712;4.800;2023-06-14T12:32:10;26.60;1.00
21646;DHT22;10984;45.712;4.800;2023-06-14T12:34:36;26.50;1.00
21646;DHT22;10984;45.712;4.800;2023-06-14T12:37:03;26.60;1.00
21646;DHT22;10984;45.712;4.800;2023-06-14T12:39:29;26.60;1.00
21646;DHT22;10984;45.712;4.800;2023-06-14T12:41:57;26.60;1.00
21646;DHT22;10984;45.712;4.800;2023-06-14T12:44:23;26.50;1.00
21646;DHT22;10984;45.712;4.800;2023-06-14T12:46:49;26.40;1.00
21646;DHT22;10984;45.712;4.800;2023-06-14T12:49:17;26.40;1.00
21646;DHT22;10984;45.712;4.800;2023-06-14T12:51:42;26.40;1.00
21646;DHT22;10984;45.712;4.800;2023-06-14T12:54:08;26.50;1.00
21646;DHT22;10984;45.712;4.800;2023-06-14T12:56:35;26.50;1.00
21646;DHT22;10984;45.712;4.800;2023-06-14T12:59:00;26.50;1.00
21646;DHT22;10984;45.712;4.800;2023-06-14T13:01:26;26.50;1.00
21646;DHT22;10984;45.712;4.800;2023-06-14T13:03:52;26.60;1.00
21646;DHT22;10984;45.712;4.800;2023-06-14T13:06:21;26.60;1.00
21646;DHT22;10984;45.712;4.800;2023-06-14T13:08:48;26.60;1.00
21646;DHT22;10984;45.712;4.800;2023-06-14T13:11:14;26.70;1.00
21646;DHT22;10984;45.712;4.800;2023-06-14T13:13:40;26.70;1.00
21646;DHT22;10984;45.712;4.800;2023-06-14T13:16:05;26.80;1.00
21646;DHT22;10984;45.712;4.800;2023-06-14T13:18:31;26.80;1.00
21646;DHT22;10984;45.712;4.800;2023-06-14T13:20:57;26.80;99.90
21646;DHT22;10984;45.712;4.800;2023-06-14T13:23:22;26.70;99.90
21646;DHT22;10984;45.712;4.800;2023-06-14T13:25:48;26.80;1.00
21646;DHT22;10984;45.712;4.800;2023-06-14T13:28:16;26.60;1.00
21646;DHT22;10984;45.712;4.800;2023-06-14T13:30:42;26.60;1.00
21646;DHT22;10984;45.712;4.800;2023-06-14T13:33:08;26.60;99.90
21646;DHT22;10984;45.712;4.800;2023-06-14T13:35:33;26.60;1.00
21646;DHT22;10984;45.712;4.800;2023-06-14T13:37:59;26.60;99.90
21646;DHT22;10984;45.712;4.800;2023-06-14T13:40:25;26.70;99.90
21646;DHT22;10984;45.712;4.800;2023-06-14T13:42:51;26.80;99.90
21646;DHT22;10984;45.712;4.800;2023-06-14T13:45:17;26.80;99.90
21646;DHT22;10984;45.712;4.800;2023-06-14T13:47:42;26.90;99.90
21646;DHT22;10984;45.712;4.800;2023-06-14T13:50:08;27.00;6.30
21646;DHT22;10984;45.712;4.800;2023-06-14T13:52:34;27.10;99.90
21646;DHT22;10984;45.712;4.800;2023-06-14T13:55:00;27.00;99.90
21646;DHT22;10984;45.712;4.800;2023-06-14T13:57:26;27.00;99.90
21646;DHT22;10984;45.712;4.800;2023-06-14T13:59:51;26.90;99.90
21646;DHT22;10984;45.712;4.800;2023-06-14T14:02:21;26.80;99.90
21646;DHT22;10984;45.712;4.800;2023-06-14T14:04:46;26.90;99.90
21646;DHT22;10984;45.712;4.800;2023-06-14T14:07:18;27.00;99.90
21646;DHT22;10984;45.712;4.800;2023-06-14T14:09:45;27.10;99.90
21646;DHT22;10984;45.712;4.800;2023-06-14T14:12:11;27.10;1.00
21646;DHT22;10984;45.712;4.800;2023-06-14T14:14:37;27.10;1.00
21646;DHT22;10984;45.712;4.800;2023-06-14T14:17:02;27.10;1.00
21646;DHT22;10984;45.712;4.800;2023-06-14T14:19:29;27.10;1.00
21646;DHT22;10984;45.712;4.800;2023-06-14T14:21:55;27.10;1.00
21646;DHT22;10984;45.712;4.800;2023-06-14T14:24:20;27.00;1.00
21646;DHT22;10984;45.712;4.800;2023-06-14T14:26:46;27.10;1.00
21646;DHT22;10984;45.712;4.800;2023-06-14T14:29:14;27.10;1.00
21646;DHT22;10984;45.712;4.800;2023-06-14T14:31:39;27.10;1.00
21646;DHT22;10984;45.712;4.800;2023-06-14T14:34:05;27.10;1.00
21646;DHT22;10984;45.712;4.800;2023-06-14T14:36:31;27.10;1.00
21646;DHT22;10984;45.712;4.800;2023-06-14T14:38:58;27.20;1.00
21646;DHT22;10984;45.712;4.800;2023-06-14T14:41:24;27.20;1.00
21646;DHT22;10984;45.712;4.800;2023-06-14T14:43:49;27.20;1.00
21646;DHT22;10984;45.712;4.800;2023-06-14T14:46:15;27.20;1.00
21646;DHT22;10984;45.712;4.800;2023-06-14T14:48:42;27.20;1.00
21646;DHT22;10984;45.712;4.800;2023-06-14T14:51:07;27.20;1.00
21646;DHT22;10984;45.712;4.800;2023-06-14T14:53:33;27.20;20.90
21646;DHT22;10984;45.712;4.800;2023-06-14T14:55:59;27.20;99.90
21646;DHT22;10984;45.712;4.800;2023-06-14T14:58:25;27.20;4.20
21646;DHT22;10984;45.712;4.800;2023-06-14T15:00:50;27.20;48.80
21646;DHT22;10984;45.712;4.800;2023-06-14T15:03:16;27.20;99.90
21646;DHT22;10984;45.712;4.800;2023-06-14T15:05:42;27.20;33.80
21646;DHT22;10984;45.712;4.800;2023-06-14T15:08:08;27.20;62.90
21646;DHT22;10984;45.712;4.800;2023-06-14T15:10:37;27.20;99.90
21646;DHT22;10984;45.712;4.800;2023-06-14T15:13:05;27.20;99.90
21646;DHT22;10984;45.712;4.800;2023-06-14T15:15:31;27.20;99.90
21646;DHT22;10984;45.712;4.800;2023-06-14T15:17:57;27.30;99.90
21646;DHT22;10984;45.712;4.800;2023-06-14T15:20:22;27.20;99.90
21646;DHT22;10984;45.712;4.800;2023-06-14T15:22:48;27.20;99.90
21646;DHT22;10984;45.712;4.800;2023-06-14T15:25:14;27.20;99.90
21646;DHT22;10984;45.712;4.800;2023-06-14T15:27:39;27.10;1.00
21646;DHT22;10984;45.712;4.800;2023-06-14T15:30:05;27.10;99.90
21646;DHT22;10984;45.712;4.800;2023-06-14T15:32:31;27.10;1.00
21646;DHT22;10984;45.712;4.800;2023-06-14T15:34:57;27.00;99.90
21646;DHT22;10984;45.712;4.800;2023-06-14T15:37:23;27.10;1.00
21646;DHT22;10984;45.712;4.800;2023-06-14T15:39:48;27.20;99.90
21646;DHT22;10984;45.712;4.800;2023-06-14T15:42:14;27.20;99.90
21646;DHT22;10984;45.712;4.800;2023-06-14T15:44:40;27.20;99.90
21646;DHT22;10984;45.712;4.800;2023-06-14T15:47:07;27.20;99.90
21646;DHT22;10984;45.712;4.800;2023-06-14T15:49:33;27.10;99.90
21646;DHT22;10984;45.712;4.800;2023-06-14T15:51:59;27.10;99.90
21646;DHT22;10984;45.712;4.800;2023-06-14T15:54:26;27.10;99.90
21646;DHT22;10984;45.712;4.800;2023-06-14T15:56:52;27.00;99.90
21646;DHT22;10984;45.712;4.800;2023-06-14T15:59:18;27.00;99.90
21646;DHT22;10984;45.712;4.800;2023-06-14T16:01:43;27.10;99.90
21646;DHT22;10984;45.712;4.800;2023-06-14T16:04:09;27.00;1.00